sensor_id;sensor_type;location;lat;lon;timestamp;P1;durP1;ratioP1;P2;durP2;ratioP2
24373;SDS011;12498;50.880;12.096;2023-08-06T00:00:11;9.82;;;5.75;;
24373;SDS011;12498;50.880;12.096;2023-08-06T00:02:37;8.32;;;5.90;;
24373;SDS011;12498;50.880;12.096;2023-08-06T00:05:03;9.18;;;6.15;;
24373;SDS011;12498;50.880;12.096;2023-08-06T00:07:29;10.48;;;6.45;;
24373;SDS011;12498;50.880;12.096;2023-08-06T00:09:54;12.27;;;6.50;;
24373;SDS011;12498;50.880;12.096;2023-08-06T00:12:20;10.27;;;6.15;;
24373;SDS011;12498;50.880;12.096;2023-08-06T00:14:49;7.75;;;5.00;;
24373;SDS011;12498;50.880;12.096;2023-08-06T00:17:16;6.40;;;4.82;;
24373;SDS011;12498;50.880;12.096;2023-08-06T00:19:41;10.07;;;4.90;;
24373;SDS011;12498;50.880;12.096;2023-08-06T00:22:07;6.82;;;4.28;;
24373;SDS011;12498;50.880;12.096;2023-08-06T00:24:33;7.88;;;4.00;;
24373;SDS011;12498;50.880;12.096;2023-08-06T00:26:59;5.20;;;3.53;;
24373;SDS011;12498;50.880;12.096;2023-08-06T00:29:25;5.93;;;3.33;;
24373;SDS011;12498;50.880;12.096;2023-08-06T00:31:50;3.47;;;2.72;;
24373;SDS011;12498;50.880;12.096;2023-08-06T00:34:16;6.57;;;2.70;;
24373;SDS011;12498;50.880;12.096;2023-08-06T00:36:41;3.40;;;2.30;;
24373;SDS011;12498;50.880;12.096;2023-08-06T00:39:07;3.45;;;2.22;;
24373;SDS011;12498;50.880;12.096;2023-08-06T00:41:33;5.80;;;2.25;;
24373;SDS011;12498;50.880;12.096;2023-08-06T00:43:58;4.78;;;2.42;;
24373;SDS011;12498;50.880;12.096;2023-08-06T00:46:24;2.88;;;2.20;;
24373;SDS011;12498;50.880;12.096;2023-08-06T00:48:50;2.80;;;2.15;;
24373;SDS011;12498;50.880;12.096;2023-08-06T00:51:16;3.35;;;2.20;;
24373;SDS011;12498;50.880;12.096;2023-08-06T00:53:41;5.75;;;2.00;;
24373;SDS011;12498;50.880;12.096;2023-08-06T00:56:08;3.30;;;2.20;;
24373;SDS011;12498;50.880;12.096;2023-08-06T00:58:34;4.43;;;1.77;;
24373;SDS011;12498;50.880;12.096;2023-08-06T01:01:01;6.32;;;2.00;;
24373;SDS011;12498;50.880;12.096;2023-08-06T01:03:27;4.18;;;2.00;;
24373;SDS011;12498;50.880;12.096;2023-08-06T01:05:53;3.58;;;2.00;;
24373;SDS011;12498;50.880;12.096;2023-08-06T01:13:51;4.90;;;1.90;;
24373;SDS011;12498;50.880;12.096;2023-08-06T01:16:24;4.95;;;1.63;;
24373;SDS011;12498;50.880;12.096;2023-08-06T01:18:50;2.58;;;1.75;;
24373;SDS011;12498;50.880;12.096;2023-08-06T01:21:16;2.80;;;1.70;;
24373;SDS011;12498;50.880;12.096;2023-08-06T01:23:42;3.72;;;1.60;;
24373;SDS011;12498;50.880;12.096;2023-08-06T01:31:39;4.72;;;1.48;;
24373;SDS011;12498;50.880;12.096;2023-08-06T01:34:09;2.40;;;1.60;;
24373;SDS011;12498;50.880;12.096;2023-08-06T01:36:42;3.47;;;1.60;;
24373;SDS011;12498;50.880;12.096;2023-08-06T01:39:08;2.42;;;1.67;;
24373;SDS011;12498;50.880;12.096;2023-08-06T01:41:34;3.05;;;1.75;;
24373;SDS011;12498;50.880;12.096;2023-08-06T01:43:59;3.70;;;1.63;;
24373;SDS011;12498;50.880;12.096;2023-08-06T01:46:25;2.30;;;1.63;;
24373;SDS011;12498;50.880;12.096;2023-08-06T01:48:50;2.70;;;1.60;;
24373;SDS011;12498;50.880;12.096;2023-08-06T01:51:16;2.72;;;1.60;;
24373;SDS011;12498;50.880;12.096;2023-08-06T01:53:42;3.05;;;1.58;;
24373;SDS011;12498;50.880;12.096;2023-08-06T01:56:07;2.42;;;1.85;;
24373;SDS011;12498;50.880;12.096;2023-08-06T01:58:33;3.97;;;1.90;;
24373;SDS011;12498;50.880;12.096;2023-08-06T02:00:58;4.43;;;1.55;;
24373;SDS011;12498;50.880;12.096;2023-08-06T02:03:24;2.75;;;1.60;;
24373;SDS011;12498;50.880;12.096;2023-08-06T02:05:50;1.80;;;1.40;;
24373;SDS011;12498;50.880;12.096;2023-08-06T02:08:15;3.08;;;1.67;;
24373;SDS011;12498;50.880;12.096;2023-08-06T02:10:41;4.72;;;1.63;;
24373;SDS011;12498;50.880;12.096;2023-08-06T02:13:07;4.70;;;1.80;;
24373;SDS011;12498;50.880;12.096;2023-08-06T02:15:32;2.85;;;1.77;;
24373;SDS011;12498;50.880;12.096;2023-08-06T02:17:58;3.72;;;1.80;;
24373;SDS011;12498;50.880;12.096;2023-08-06T02:20:23;2.85;;;1.67;;
24373;SDS011;12498;50.880;12.096;2023-08-06T02:22:49;3.58;;;1.70;;
24373;SDS011;12498;50.880;12.096;2023-08-06T02:25:14;3.20;;;2.00;;
24373;SDS011;12498;50.880;12.096;2023-08-06T02:27:40;4.03;;;2.08;;
24373;SDS011;12498;50.880;12.096;2023-08-06T02:30:06;2.88;;;1.85;;
24373;SDS011;12498;50.880;12.096;2023-08-06T02:32:32;2.97;;;1.95;;
24373;SDS011;12498;50.880;12.096;2023-08-06T02:35:00;2.22;;;1.95;;
24373;SDS011;12498;50.880;12.096;2023-08-06T02:37:27;2.85;;;1.77;;
24373;SDS011;12498;50.880;12.096;2023-08-06T02:39:52;3.95;;;1.63;;
24373;SDS011;12498;50.880;12.096;2023-08-06T02:42:18;3.13;;;2.00;;
24373;SDS011;12498;50.880;12.096;2023-08-06T02:44:43;8.07;;;2.10;;
24373;SDS011;12498;50.880;12.096;2023-08-06T02:47:09;3.67;;;2.00;;
24373;SDS011;12498;50.880;12.096;2023-08-06T02:49:35;2.88;;;1.90;;
24373;SDS011;12498;50.880;12.096;2023-08-06T02:52:00;2.83;;;1.98;;
24373;SDS011;12498;50.880;12.096;2023-08-06T02:54:26;2.88;;;2.10;;
24373;SDS011;12498;50.880;12.096;2023-08-06T02:56:51;4.30;;;2.00;;
24373;SDS011;12498;50.880;12.096;2023-08-06T02:59:17;2.85;;;1.90;;
24373;SDS011;12498;50.880;12.096;2023-08-06T03:01:43;3.35;;;1.90;;
24373;SDS011;12498;50.880;12.096;2023-08-06T03:04:08;3.65;;;2.15;;
24373;SDS011;12498;50.880;12.096;2023-08-06T03:06:34;3.03;;;2.00;;
24373;SDS011;12498;50.880;12.096;2023-08-06T03:08:59;3.03;;;2.20;;
24373;SDS011;12498;50.880;12.096;2023-08-06T03:11:25;3.03;;;1.90;;
24373;SDS011;12498;50.880;12.096;2023-08-06T03:13:51;3.20;;;2.00;;
24373;SDS011;12498;50.880;12.096;2023-08-06T03:16:16;4.80;;;2.15;;
24373;SDS011;12498;50.880;12.096;2023-08-06T03:18:42;2.83;;;2.05;;
24373;SDS011;12498;50.880;12.096;2023-08-06T03:21:07;7.32;;;2.20;;
24373;SDS011;12498;50.880;12.096;2023-08-06T03:23:33;2.97;;;2.05;;
24373;SDS011;12498;50.880;12.096;2023-08-06T03:26:02;3.58;;;2.05;;
24373;SDS011;12498;50.880;12.096;2023-08-06T03:28:28;3.53;;;2.30;;
24373;SDS011;12498;50.880;12.096;2023-08-06T03:31:00;3.10;;;2.35;;
24373;SDS011;12498;50.880;12.096;2023-08-06T03:33:26;4.70;;;2.58;;
24373;SDS011;12498;50.880;12.096;2023-08-06T03:35:52;3.08;;;2.35;;
24373;SDS011;12498;50.880;12.096;2023-08-06T03:38:17;6.45;;;2.58;;
24373;SDS011;12498;50.880;12.096;2023-08-06T03:40:43;4.93;;;2.30;;
24373;SDS011;12498;50.880;12.096;2023-08-06T03:43:08;4.32;;;2.35;;
24373;SDS011;12498;50.880;12.096;2023-08-06T03:45:34;3.75;;;2.20;;
24373;SDS011;12498;50.880;12.096;2023-08-06T03:48:00;4.30;;;2.60;;
24373;SDS011;12498;50.880;12.096;2023-08-06T03:50:25;3.97;;;2.17;;
24373;SDS011;12498;50.880;12.096;2023-08-06T03:52:51;4.95;;;2.30;;
24373;SDS011;12498;50.880;12.096;2023-08-06T03:55:16;2.92;;;2.40;;
24373;SDS011;12498;50.880;12.096;2023-08-06T03:57:42;7.05;;;2.75;;
24373;SDS011;12498;50.880;12.096;2023-08-06T04:00:08;4.60;;;2.33;;
24373;SDS011;12498;50.880;12.096;2023-08-06T04:02:34;4.70;;;2.50;;
24373;SDS011;12498;50.880;12.096;2023-08-06T04:05:00;4.82;;;2.15;;
24373;SDS011;12498;50.880;12.096;2023-08-06T04:07:26;3.85;;;2.45;;
24373;SDS011;12498;50.880;12.096;2023-08-06T04:09:52;2.53;;;2.20;;
24373;SDS011;12498;50.880;12.096;2023-08-06T04:12:22;3.25;;;2.20;;
24373;SDS011;12498;50.880;12.096;2023-08-06T04:14:49;6.00;;;2.70;;
24373;SDS011;12498;50.880;12.096;2023-08-06T04:17:16;6.78;;;3.88;;
24373;SDS011;12498;50.880;12.096;2023-08-06T04:19:45;9.02;;;3.67;;
24373;SDS011;12498;50.880;12.096;2023-08-06T04:22:14;6.03;;;2.45;;
24373;SDS011;12498;50.880;12.096;2023-08-06T04:24:41;7.82;;;2.88;;
24373;SDS011;12498;50.880;12.096;2023-08-06T04:27:08;4.50;;;2.83;;
24373;SDS011;12498;50.880;12.096;2023-08-06T04:29:34;4.43;;;2.83;;
24373;SDS011;12498;50.880;12.096;2023-08-06T04:31:59;6.05;;;3.33;;
24373;SDS011;12498;50.880;12.096;2023-08-06T04:34:25;7.88;;;4.75;;
24373;SDS011;12498;50.880;12.096;2023-08-06T04:36:51;3.05;;;2.42;;
24373;SDS011;12498;50.880;12.096;2023-08-06T04:39:16;12.20;;;3.42;;
24373;SDS011;12498;50.880;12.096;2023-08-06T04:41:42;4.95;;;2.72;;
24373;SDS011;12498;50.880;12.096;2023-08-06T04:44:07;5.60;;;2.85;;
24373;SDS011;12498;50.880;12.096;2023-08-06T04:46:33;5.88;;;3.03;;
24373;SDS011;12498;50.880;12.096;2023-08-06T04:48:59;6.75;;;5.47;;
24373;SDS011;12498;50.880;12.096;2023-08-06T04:51:24;3.97;;;3.58;;
24373;SDS011;12498;50.880;12.096;2023-08-06T04:53:50;4.38;;;2.83;;
24373;SDS011;12498;50.880;12.096;2023-08-06T04:56:15;3.20;;;2.35;;
24373;SDS011;12498;50.880;12.096;2023-08-06T04:58:41;6.25;;;2.40;;
24373;SDS011;12498;50.880;12.096;2023-08-06T05:01:06;4.35;;;2.60;;
24373;SDS011;12498;50.880;12.096;2023-08-06T05:03:32;3.92;;;2.60;;
24373;SDS011;12498;50.880;12.096;2023-08-06T05:05:58;7.95;;;5.38;;
24373;SDS011;12498;50.880;12.096;2023-08-06T05:08:23;6.28;;;4.10;;
24373;SDS011;12498;50.880;12.096;2023-08-06T05:10:49;5.70;;;3.15;;
24373;SDS011;12498;50.880;12.096;2023-08-06T05:13:14;4.65;;;2.63;;
24373;SDS011;12498;50.880;12.096;2023-08-06T05:15:41;4.45;;;2.40;;
24373;SDS011;12498;50.880;12.096;2023-08-06T05:18:08;3.00;;;2.33;;
24373;SDS011;12498;50.880;12.096;2023-08-06T05:20:37;9.30;;;2.58;;
24373;SDS011;12498;50.880;12.096;2023-08-06T05:23:06;5.40;;;2.88;;
24373;SDS011;12498;50.880;12.096;2023-08-06T05:25:34;3.00;;;2.20;;
24373;SDS011;12498;50.880;12.096;2023-08-06T05:28:00;2.45;;;2.25;;
24373;SDS011;12498;50.880;12.096;2023-08-06T05:30:26;7.15;;;4.55;;
24373;SDS011;12498;50.880;12.096;2023-08-06T05:32:52;6.20;;;2.90;;
24373;SDS011;12498;50.880;12.096;2023-08-06T05:35:18;5.63;;;2.88;;
24373;SDS011;12498;50.880;12.096;2023-08-06T05:37:44;5.28;;;3.03;;
24373;SDS011;12498;50.880;12.096;2023-08-06T05:40:09;4.07;;;2.90;;
24373;SDS011;12498;50.880;12.096;2023-08-06T05:42:35;3.47;;;2.80;;
24373;SDS011;12498;50.880;12.096;2023-08-06T05:45:00;5.07;;;2.78;;
24373;SDS011;12498;50.880;12.096;2023-08-06T05:47:26;4.07;;;2.75;;
24373;SDS011;12498;50.880;12.096;2023-08-06T05:49:52;3.90;;;2.72;;
24373;SDS011;12498;50.880;12.096;2023-08-06T05:52:17;3.85;;;2.70;;
24373;SDS011;12498;50.880;12.096;2023-08-06T05:54:43;4.38;;;3.05;;
24373;SDS011;12498;50.880;12.096;2023-08-06T05:57:08;4.57;;;2.70;;
24373;SDS011;12498;50.880;12.096;2023-08-06T05:59:34;7.78;;;3.40;;
24373;SDS011;12498;50.880;12.096;2023-08-06T06:02:00;3.97;;;2.83;;
24373;SDS011;12498;50.880;12.096;2023-08-06T06:04:25;7.80;;;5.40;;
24373;SDS011;12498;50.880;12.096;2023-08-06T06:06:51;11.38;;;4.18;;
24373;SDS011;12498;50.880;12.096;2023-08-06T06:09:17;5.43;;;3.28;;
24373;SDS011;12498;50.880;12.096;2023-08-06T06:11:42;5.38;;;3.90;;
24373;SDS011;12498;50.880;12.096;2023-08-06T06:14:08;5.60;;;3.40;;
24373;SDS011;12498;50.880;12.096;2023-08-06T06:16:33;6.05;;;4.05;;
24373;SDS011;12498;50.880;12.096;2023-08-06T06:18:59;6.03;;;4.18;;
24373;SDS011;12498;50.880;12.096;2023-08-06T06:21:25;5.22;;;3.30;;
24373;SDS011;12498;50.880;12.096;2023-08-06T06:23:50;5.85;;;3.15;;
24373;SDS011;12498;50.880;12.096;2023-08-06T06:26:17;10.13;;;3.30;;
24373;SDS011;12498;50.880;12.096;2023-08-06T06:28:43;5.28;;;3.17;;
24373;SDS011;12498;50.880;12.096;2023-08-06T06:31:08;10.13;;;4.25;;
24373;SDS011;12498;50.880;12.096;2023-08-06T06:33:34;6.28;;;4.63;;
24373;SDS011;12498;50.880;12.096;2023-08-06T06:36:00;6.80;;;4.60;;
24373;SDS011;12498;50.880;12.096;2023-08-06T06:38:28;6.68;;;4.38;;
24373;SDS011;12498;50.880;12.096;2023-08-06T06:40:54;7.25;;;3.45;;
24373;SDS011;12498;50.880;12.096;2023-08-06T06:43:20;4.35;;;3.17;;
24373;SDS011;12498;50.880;12.096;2023-08-06T06:45:46;6.38;;;3.10;;
24373;SDS011;12498;50.880;12.096;2023-08-06T06:48:12;4.55;;;3.13;;
24373;SDS011;12498;50.880;12.096;2023-08-06T06:50:37;7.18;;;3.30;;
24373;SDS011;12498;50.880;12.096;2023-08-06T06:53:04;5.13;;;3.53;;
24373;SDS011;12498;50.880;12.096;2023-08-06T06:55:30;6.50;;;3.63;;
24373;SDS011;12498;50.880;12.096;2023-08-06T06:57:55;5.25;;;3.47;;
24373;SDS011;12498;50.880;12.096;2023-08-06T07:00:21;7.55;;;3.55;;
24373;SDS011;12498;50.880;12.096;2023-08-06T07:02:46;5.18;;;3.35;;
24373;SDS011;12498;50.880;12.096;2023-08-06T07:05:12;7.72;;;3.38;;
24373;SDS011;12498;50.880;12.096;2023-08-06T07:07:38;5.00;;;3.30;;
24373;SDS011;12498;50.880;12.096;2023-08-06T07:10:03;8.25;;;6.25;;
24373;SDS011;12498;50.880;12.096;2023-08-06T07:12:30;9.13;;;3.75;;
24373;SDS011;12498;50.880;12.096;2023-08-06T07:14:56;4.47;;;3.75;;
24373;SDS011;12498;50.880;12.096;2023-08-06T07:17:21;6.95;;;3.47;;
24373;SDS011;12498;50.880;12.096;2023-08-06T07:19:47;5.25;;;3.25;;
24373;SDS011;12498;50.880;12.096;2023-08-06T07:22:13;7.25;;;3.08;;
24373;SDS011;12498;50.880;12.096;2023-08-06T07:24:38;4.88;;;3.30;;
24373;SDS011;12498;50.880;12.096;2023-08-06T07:27:04;5.53;;;3.10;;
24373;SDS011;12498;50.880;12.096;2023-08-06T07:29:30;3.63;;;3.08;;
24373;SDS011;12498;50.880;12.096;2023-08-06T07:31:55;4.25;;;2.60;;
24373;SDS011;12498;50.880;12.096;2023-08-06T07:34:21;8.45;;;3.00;;
24373;SDS011;12498;50.880;12.096;2023-08-06T07:36:47;6.20;;;2.85;;
24373;SDS011;12498;50.880;12.096;2023-08-06T07:39:12;3.75;;;2.10;;
24373;SDS011;12498;50.880;12.096;2023-08-06T07:41:38;3.92;;;2.42;;
24373;SDS011;12498;50.880;12.096;2023-08-06T07:44:04;5.50;;;3.40;;
24373;SDS011;12498;50.880;12.096;2023-08-06T07:46:29;3.40;;;2.92;;
24373;SDS011;12498;50.880;12.096;2023-08-06T07:48:55;5.85;;;3.33;;
24373;SDS011;12498;50.880;12.096;2023-08-06T07:51:21;3.78;;;2.63;;
24373;SDS011;12498;50.880;12.096;2023-08-06T07:53:47;3.55;;;2.50;;
24373;SDS011;12498;50.880;12.096;2023-08-06T07:56:12;6.07;;;3.95;;
24373;SDS011;12498;50.880;12.096;2023-08-06T07:58:38;9.73;;;4.00;;
24373;SDS011;12498;50.880;12.096;2023-08-06T08:01:03;5.60;;;2.80;;
24373;SDS011;12498;50.880;12.096;2023-08-06T08:03:31;7.68;;;3.70;;
24373;SDS011;12498;50.880;12.096;2023-08-06T08:05:57;3.92;;;3.10;;
24373;SDS011;12498;50.880;12.096;2023-08-06T08:08:23;5.55;;;3.30;;
24373;SDS011;12498;50.880;12.096;2023-08-06T08:10:49;3.60;;;2.30;;
24373;SDS011;12498;50.880;12.096;2023-08-06T08:13:14;3.15;;;2.30;;
24373;SDS011;12498;50.880;12.096;2023-08-06T08:15:40;3.05;;;2.33;;
24373;SDS011;12498;50.880;12.096;2023-08-06T08:18:05;5.90;;;2.60;;
24373;SDS011;12498;50.880;12.096;2023-08-06T08:20:31;6.60;;;3.28;;
24373;SDS011;12498;50.880;12.096;2023-08-06T08:23:01;5.18;;;2.15;;
24373;SDS011;12498;50.880;12.096;2023-08-06T08:25:27;2.83;;;2.40;;
24373;SDS011;12498;50.880;12.096;2023-08-06T08:27:53;2.25;;;2.05;;
24373;SDS011;12498;50.880;12.096;2023-08-06T08:30:20;2.85;;;2.20;;
24373;SDS011;12498;50.880;12.096;2023-08-06T08:32:46;3.17;;;1.90;;
24373;SDS011;12498;50.880;12.096;2023-08-06T08:35:13;6.28;;;2.08;;
24373;SDS011;12498;50.880;12.096;2023-08-06T08:37:39;4.10;;;2.03;;
24373;SDS011;12498;50.880;12.096;2023-08-06T08:40:06;6.53;;;4.35;;
24373;SDS011;12498;50.880;12.096;2023-08-06T08:42:32;4.15;;;3.70;;
24373;SDS011;12498;50.880;12.096;2023-08-06T08:44:58;4.32;;;2.20;;
24373;SDS011;12498;50.880;12.096;2023-08-06T08:47:24;3.67;;;2.13;;
24373;SDS011;12498;50.880;12.096;2023-08-06T08:49:52;4.45;;;2.10;;
24373;SDS011;12498;50.880;12.096;2023-08-06T08:52:20;8.55;;;5.18;;
24373;SDS011;12498;50.880;12.096;2023-08-06T08:54:47;4.32;;;2.58;;
24373;SDS011;12498;50.880;12.096;2023-08-06T08:57:18;3.55;;;2.20;;
24373;SDS011;12498;50.880;12.096;2023-08-06T08:59:45;3.67;;;2.25;;
24373;SDS011;12498;50.880;12.096;2023-08-06T09:02:11;3.25;;;2.30;;
24373;SDS011;12498;50.880;12.096;2023-08-06T09:04:38;2.53;;;2.17;;
24373;SDS011;12498;50.880;12.096;2023-08-06T09:07:05;5.68;;;3.17;;
24373;SDS011;12498;50.880;12.096;2023-08-06T09:09:33;4.18;;;2.20;;
24373;SDS011;12498;50.880;12.096;2023-08-06T09:12:02;3.25;;;2.30;;
24373;SDS011;12498;50.880;12.096;2023-08-06T09:14:36;2.50;;;2.08;;
24373;SDS011;12498;50.880;12.096;2023-08-06T09:17:01;3.88;;;2.25;;
24373;SDS011;12498;50.880;12.096;2023-08-06T09:19:34;3.92;;;2.40;;
24373;SDS011;12498;50.880;12.096;2023-08-06T09:22:00;4.15;;;2.50;;
24373;SDS011;12498;50.880;12.096;2023-08-06T09:24:27;6.22;;;2.88;;
24373;SDS011;12498;50.880;12.096;2023-08-06T09:26:52;4.10;;;2.55;;
24373;SDS011;12498;50.880;12.096;2023-08-06T09:29:19;5.47;;;3.13;;
24373;SDS011;12498;50.880;12.096;2023-08-06T09:31:48;2.85;;;2.30;;
24373;SDS011;12498;50.880;12.096;2023-08-06T09:34:19;5.13;;;2.25;;
24373;SDS011;12498;50.880;12.096;2023-08-06T09:36:49;3.08;;;2.20;;
24373;SDS011;12498;50.880;12.096;2023-08-06T09:39:19;2.92;;;2.00;;
24373;SDS011;12498;50.880;12.096;2023-08-06T09:41:46;4.45;;;2.55;;
24373;SDS011;12498;50.880;12.096;2023-08-06T09:44:19;5.03;;;2.97;;
24373;SDS011;12498;50.880;12.096;2023-08-06T09:46:47;3.63;;;2.63;;
24373;SDS011;12498;50.880;12.096;2023-08-06T09:50:03;5.57;;;2.35;;
24373;SDS011;12498;50.880;12.096;2023-08-06T09:52:11;4.00;;;2.10;;
24373;SDS011;12498;50.880;12.096;2023-08-06T09:54:37;3.72;;;2.50;;
24373;SDS011;12498;50.880;12.096;2023-08-06T09:57:03;2.58;;;2.30;;
24373;SDS011;12498;50.880;12.096;2023-08-06T09:59:30;3.45;;;2.20;;
24373;SDS011;12498;50.880;12.096;2023-08-06T10:01:58;4.03;;;2.30;;
24373;SDS011;12498;50.880;12.096;2023-08-06T10:04:24;3.17;;;2.40;;
24373;SDS011;12498;50.880;12.096;2023-08-06T10:06:50;4.28;;;2.35;;
24373;SDS011;12498;50.880;12.096;2023-08-06T10:09:15;2.38;;;2.10;;
24373;SDS011;12498;50.880;12.096;2023-08-06T10:11:44;5.38;;;2.97;;
24373;SDS011;12498;50.880;12.096;2023-08-06T10:14:16;2.88;;;1.90;;
24373;SDS011;12498;50.880;12.096;2023-08-06T10:16:48;3.00;;;2.08;;
24373;SDS011;12498;50.880;12.096;2023-08-06T10:19:15;4.30;;;2.20;;
24373;SDS011;12498;50.880;12.096;2023-08-06T10:21:42;3.50;;;2.10;;
24373;SDS011;12498;50.880;12.096;2023-08-06T10:24:52;3.60;;;2.00;;
24373;SDS011;12498;50.880;12.096;2023-08-06T10:27:21;2.92;;;1.90;;
24373;SDS011;12498;50.880;12.096;2023-08-06T10:29:53;6.05;;;2.03;;
24373;SDS011;12498;50.880;12.096;2023-08-06T10:32:18;5.18;;;1.92;;
24373;SDS011;12498;50.880;12.096;2023-08-06T10:34:54;3.28;;;1.77;;
24373;SDS011;12498;50.880;12.096;2023-08-06T10:37:24;3.92;;;2.00;;
24373;SDS011;12498;50.880;12.096;2023-08-06T10:39:59;4.50;;;1.92;;
24373;SDS011;12498;50.880;12.096;2023-08-06T10:42:28;4.53;;;2.58;;
24373;SDS011;12498;50.880;12.096;2023-08-06T10:45:12;4.38;;;1.90;;
24373;SDS011;12498;50.880;12.096;2023-08-06T10:47:40;2.88;;;1.90;;
24373;SDS011;12498;50.880;12.096;2023-08-06T10:52:42;4.45;;;3.10;;
24373;SDS011;12498;50.880;12.096;2023-08-06T10:55:08;3.33;;;1.77;;
24373;SDS011;12498;50.880;12.096;2023-08-06T10:57:35;4.55;;;3.08;;
24373;SDS011;12498;50.880;12.096;2023-08-06T11:00:00;4.30;;;2.92;;
24373;SDS011;12498;50.880;12.096;2023-08-06T11:02:26;4.38;;;1.73;;
24373;SDS011;12498;50.880;12.096;2023-08-06T11:04:53;7.22;;;5.32;;
24373;SDS011;12498;50.880;12.096;2023-08-06T11:07:18;6.63;;;2.70;;
24373;SDS011;12498;50.880;12.096;2023-08-06T11:09:44;2.85;;;2.03;;
24373;SDS011;12498;50.880;12.096;2023-08-06T11:12:10;4.18;;;1.50;;
24373;SDS011;12498;50.880;12.096;2023-08-06T11:14:36;2.38;;;1.50;;
24373;SDS011;12498;50.880;12.096;2023-08-06T11:17:01;3.65;;;1.70;;
24373;SDS011;12498;50.880;12.096;2023-08-06T11:19:27;1.60;;;1.33;;
24373;SDS011;12498;50.880;12.096;2023-08-06T11:21:54;4.38;;;2.90;;
24373;SDS011;12498;50.880;12.096;2023-08-06T11:24:19;4.05;;;2.28;;
24373;SDS011;12498;50.880;12.096;2023-08-06T11:26:45;3.38;;;1.80;;
24373;SDS011;12498;50.880;12.096;2023-08-06T11:29:11;2.53;;;1.80;;
24373;SDS011;12498;50.880;12.096;2023-08-06T11:31:36;2.60;;;1.77;;
24373;SDS011;12498;50.880;12.096;2023-08-06T11:34:02;2.10;;;1.70;;
24373;SDS011;12498;50.880;12.096;2023-08-06T11:36:31;3.05;;;1.77;;
24373;SDS011;12498;50.880;12.096;2023-08-06T11:38:59;2.50;;;1.60;;
24373;SDS011;12498;50.880;12.096;2023-08-06T11:41:27;10.10;;;7.03;;
24373;SDS011;12498;50.880;12.096;2023-08-06T11:44:01;3.85;;;1.85;;
24373;SDS011;12498;50.880;12.096;2023-08-06T11:46:27;4.07;;;2.08;;
24373;SDS011;12498;50.880;12.096;2023-08-06T11:48:54;4.70;;;1.80;;
24373;SDS011;12498;50.880;12.096;2023-08-06T11:51:27;2.75;;;2.03;;
24373;SDS011;12498;50.880;12.096;2023-08-06T11:53:57;2.58;;;1.67;;
24373;SDS011;12498;50.880;12.096;2023-08-06T11:56:23;2.45;;;1.58;;
24373;SDS011;12498;50.880;12.096;2023-08-06T11:58:50;6.18;;;3.10;;
24373;SDS011;12498;50.880;12.096;2023-08-06T12:01:16;4.07;;;1.85;;
24373;SDS011;12498;50.880;12.096;2023-08-06T12:03:42;2.38;;;1.92;;
24373;SDS011;12498;50.880;12.096;2023-08-06T12:06:08;3.67;;;1.90;;
24373;SDS011;12498;50.880;12.096;2023-08-06T12:08:33;1.85;;;1.65;;
24373;SDS011;12498;50.880;12.096;2023-08-06T12:10:59;4.78;;;1.98;;
24373;SDS011;12498;50.880;12.096;2023-08-06T12:13:25;3.85;;;2.22;;
24373;SDS011;12498;50.880;12.096;2023-08-06T12:15:51;8.30;;;1.63;;
24373;SDS011;12498;50.880;12.096;2023-08-06T12:18:18;6.13;;;2.10;;
24373;SDS011;12498;50.880;12.096;2023-08-06T12:20:44;5.88;;;2.20;;
24373;SDS011;12498;50.880;12.096;2023-08-06T12:23:10;5.32;;;2.10;;
24373;SDS011;12498;50.880;12.096;2023-08-06T12:25:38;5.05;;;1.92;;
24373;SDS011;12498;50.880;12.096;2023-08-06T12:28:04;5.22;;;2.28;;
24373;SDS011;12498;50.880;12.096;2023-08-06T12:30:30;4.65;;;2.42;;
24373;SDS011;12498;50.880;12.096;2023-08-06T12:32:57;8.48;;;3.08;;
24373;SDS011;12498;50.880;12.096;2023-08-06T12:35:22;5.68;;;2.85;;
24373;SDS011;12498;50.880;12.096;2023-08-06T12:37:50;3.85;;;2.40;;
24373;SDS011;12498;50.880;12.096;2023-08-06T12:40:19;6.25;;;2.67;;
24373;SDS011;12498;50.880;12.096;2023-08-06T12:42:45;5.43;;;2.72;;
24373;SDS011;12498;50.880;12.096;2023-08-06T12:45:11;6.90;;;3.17;;
24373;SDS011;12498;50.880;12.096;2023-08-06T12:47:36;6.20;;;2.80;;
24373;SDS011;12498;50.880;12.096;2023-08-06T12:50:02;7.93;;;2.95;;
24373;SDS011;12498;50.880;12.096;2023-08-06T12:52:28;4.57;;;2.60;;
24373;SDS011;12498;50.880;12.096;2023-08-06T12:54:54;4.70;;;2.67;;
24373;SDS011;12498;50.880;12.096;2023-08-06T12:57:20;4.13;;;2.10;;
24373;SDS011;12498;50.880;12.096;2023-08-06T12:59:45;4.32;;;1.85;;
24373;SDS011;12498;50.880;12.096;2023-08-06T13:02:11;4.00;;;1.65;;
24373;SDS011;12498;50.880;12.096;2023-08-06T13:04:37;4.57;;;1.70;;
24373;SDS011;12498;50.880;12.096;2023-08-06T13:07:02;3.50;;;2.50;;
24373;SDS011;12498;50.880;12.096;2023-08-06T13:09:28;2.60;;;1.98;;
24373;SDS011;12498;50.880;12.096;2023-08-06T13:11:54;3.70;;;1.70;;
24373;SDS011;12498;50.880;12.096;2023-08-06T13:14:20;2.33;;;1.20;;
24373;SDS011;12498;50.880;12.096;2023-08-06T13:16:46;3.70;;;1.52;;
24373;SDS011;12498;50.880;12.096;2023-08-06T13:19:12;3.35;;;1.70;;
24373;SDS011;12498;50.880;12.096;2023-08-06T13:24:07;3.50;;;1.98;;
24373;SDS011;12498;50.880;12.096;2023-08-06T13:26:33;2.22;;;1.60;;
24373;SDS011;12498;50.880;12.096;2023-08-06T13:29:00;3.85;;;1.88;;
24373;SDS011;12498;50.880;12.096;2023-08-06T13:31:27;2.70;;;1.83;;
24373;SDS011;12498;50.880;12.096;2023-08-06T13:33:56;3.53;;;1.60;;
24373;SDS011;12498;50.880;12.096;2023-08-06T13:36:25;3.13;;;1.65;;
24373;SDS011;12498;50.880;12.096;2023-08-06T13:38:52;3.42;;;1.73;;
24373;SDS011;12498;50.880;12.096;2023-08-06T13:41:18;4.43;;;1.55;;
24373;SDS011;12498;50.880;12.096;2023-08-06T13:43:44;3.22;;;2.60;;
24373;SDS011;12498;50.880;12.096;2023-08-06T13:46:09;2.08;;;1.60;;
24373;SDS011;12498;50.880;12.096;2023-08-06T13:48:40;7.78;;;2.47;;
24373;SDS011;12498;50.880;12.096;2023-08-06T13:51:06;6.63;;;1.90;;
24373;SDS011;12498;50.880;12.096;2023-08-06T13:53:31;2.30;;;1.50;;
24373;SDS011;12498;50.880;12.096;2023-08-06T13:55:57;2.80;;;1.50;;
24373;SDS011;12498;50.880;12.096;2023-08-06T13:58:23;4.57;;;1.60;;
24373;SDS011;12498;50.880;12.096;2023-08-06T14:00:50;2.92;;;1.42;;
24373;SDS011;12498;50.880;12.096;2023-08-06T14:03:18;4.30;;;1.50;;
24373;SDS011;12498;50.880;12.096;2023-08-06T14:05:44;4.28;;;1.60;;
24373;SDS011;12498;50.880;12.096;2023-08-06T14:08:09;4.10;;;1.90;;
24373;SDS011;12498;50.880;12.096;2023-08-06T14:10:35;3.47;;;1.85;;
24373;SDS011;12498;50.880;12.096;2023-08-06T14:13:01;4.60;;;2.15;;
24373;SDS011;12498;50.880;12.096;2023-08-06T14:15:26;3.55;;;1.55;;
24373;SDS011;12498;50.880;12.096;2023-08-06T14:17:52;3.53;;;2.72;;
24373;SDS011;12498;50.880;12.096;2023-08-06T14:20:17;4.57;;;1.95;;
24373;SDS011;12498;50.880;12.096;2023-08-06T14:22:43;4.85;;;1.75;;
24373;SDS011;12498;50.880;12.096;2023-08-06T14:25:09;8.27;;;2.20;;
24373;SDS011;12498;50.880;12.096;2023-08-06T14:27:34;5.15;;;2.40;;
24373;SDS011;12498;50.880;12.096;2023-08-06T14:30:01;5.65;;;1.80;;
24373;SDS011;12498;50.880;12.096;2023-08-06T14:32:28;2.75;;;1.70;;
24373;SDS011;12498;50.880;12.096;2023-08-06T14:34:54;3.20;;;1.92;;
24373;SDS011;12498;50.880;12.096;2023-08-06T14:37:19;3.22;;;1.98;;
24373;SDS011;12498;50.880;12.096;2023-08-06T14:39:45;3.70;;;2.40;;
24373;SDS011;12498;50.880;12.096;2023-08-06T14:42:10;5.28;;;2.08;;
24373;SDS011;12498;50.880;12.096;2023-08-06T14:44:36;5.20;;;2.30;;